Effective Sunday, March 17, 2024, the National Weather Service National Data Buoy Center will discontinue its Dial-A-Buoy Interactive Voice Response system. For more information, see Service Change Notice 24-06 (PDF).

Station KGXA2 - Kodiak Gull Island, AK Image indicating link to RSS feed of recent meteorological observations for station KGXA2


Conditions at KGXA2 as of
(7:54 pm AKST on 02/21/2024)
0454 GMT on 02/22/2024:
     

Click on the graph icon in the table below to see a time series plot of the last five days of that observation.

5-day plot - Wind Direction Wind Direction (WDIR):WSW ( 240 deg true )
5-day plot - Wind Speed Wind Speed (WSPD): 24 kts
5-day plot - Wind Gust Wind Gust (GST): 30 kts
5-day plot - Air Temperature Air Temperature (ATMP): 41.0 °F
5-day plot - Dew Point Dew Point (DEWP): 36.7 °F
5-day plot - Wind Chill Wind Chill (CHILL): 30.2 °F
5-day plot - Wind Speed at 10 Meters Wind Speed at 10 meters (WSPD10M): 25 kts
5-day plot - Wind Speed at 20 Meters Wind Speed at 20 meters (WSPD20M): 27 kts
5-day plot -  Wind Speed, Wind Gust and Atmospheric Pressure Combined plot of Wind Speed, Gust, and Air Pressure
Previous observations
TIME
(AKST)
5-day plot - Wind Direction
WDIR
 
5-day plot - Wind Speed
WSPD
kts
5-day plot - Wind Gust
GST
kts
5-day plot - Wave Height
WVHT
ft
5-day plot - Dominant Wave Period
DPD
sec
5-day plot - Average Wave Period
APD
sec
5-day plot - Mean Wave Direction
MWD
 
5-day plot - Atmospheric Pressure
PRES
in
5-day plot - Pressure Tendency
PTDY
in
5-day plot - Air Temperature
ATMP
°F
5-day plot - Water Temperature
WTMP
°F
5-day plot - Dew Point
DEWP
°F
5-day plot - Salinity
SAL
psu
5-day plot - Visibility
VIS
nmi
5-day plot - Tide (above MLLW)
TIDE
ft
2024-02-21 07:44 pmWSW 24 30------ 40.8- 36.7---
2024-02-21 07:34 pm SW 25 30------ 40.8- 36.7---
2024-02-21 07:24 pmWSW 25 30------ 40.8- 36.5---
2024-02-21 07:14 pmWSW 24 30------ 40.6- 36.3---
2024-02-21 07:04 pm SW 24 30------ 40.6- 36.1---
2024-02-21 06:54 pm SW 23 29------ 40.6- 36.1---
2024-02-21 06:44 pm SW 24 30------ 40.1- 36.1---
2024-02-21 06:34 pm SW 23 28------ 39.9- 35.8---
2024-02-21 06:24 pm SW 24 31------ 39.7- 35.6---
2024-02-21 06:14 pm SW 24 29------ 39.6- 35.4---
2024-02-21 06:04 pm SW 25 34------ 39.4- 35.1---
2024-02-21 05:54 pm SW 24 29------ 39.2- 34.7---
2024-02-21 05:44 pm SW 23 30------ 38.8- 34.5---
2024-02-21 05:34 pm SW 23 31------ 38.5- 34.2---
2024-02-21 05:24 pm SW 23 32------ 38.3- 34.0---
2024-02-21 05:14 pm SW 24 33------ 38.1- 34.0---
2024-02-21 05:04 pm SW 24 34------ 38.1- 33.8---
2024-02-21 04:54 pm SW 23 29------ 37.8- 33.6---
2024-02-21 04:44 pm SW 24 32------ 37.6- 33.4---
2024-02-21 04:34 pm SW 25 33------ 37.4- 33.3---
2024-02-21 04:24 pm SW 25 33------ 37.0- 32.9---
2024-02-21 04:14 pm SW 26 32------ 37.0- 32.9---
2024-02-21 04:04 pm SW 26 33------ 37.0- 32.9---
2024-02-21 03:54 pm SW 26 34------ 37.2- 33.1---
2024-02-21 03:44 pmWSW 25 33------ 37.2- 33.1---
2024-02-21 03:34 pmWSW 28 35------ 37.0- 32.9---
2024-02-21 03:24 pmWSW 27 36------ 37.0- 32.9---
2024-02-21 03:14 pmWSW 28 36------ 37.0- 32.7---
2024-02-21 02:54 pmWSW 26 32------ 36.3- 32.5---
2024-02-21 02:44 pm SW 26 32------ 36.0- 32.2---
2024-02-21 02:34 pm SW 30 37------ 36.1- 32.2---
2024-02-21 02:24 pmWSW 30 39------ 36.5- 32.2---
2024-02-21 02:14 pmWSW 31 41------ 37.6- 32.5---
2024-02-21 02:04 pmWSW 32 46------ 38.1- 32.9---
2024-02-21 01:54 pmWSW 31 44------ 38.7- 33.3---
2024-02-21 01:44 pmWSW 29 38------ 38.8- 33.3---
2024-02-21 01:34 pmWSW 28 37------ 39.2- 33.4---
2024-02-21 01:24 pmWSW 30 39------ 39.0- 33.4---
2024-02-21 01:14 pmWSW 31 41------ 39.0- 33.3---
2024-02-21 01:04 pm SW 34 44------ 39.0- 32.9---
2024-02-21 12:54 pmWSW 30 39------ 39.2- 32.9---
2024-02-21 12:44 pm SW 34 43------ 39.4- 32.5---
2024-02-21 12:34 pm SW 30 40------ 39.4- 32.5---
2024-02-21 12:24 pm SW 32 42------ 39.0- 32.7---
2024-02-21 12:14 pm SW 30 38------ 39.2- 32.5---
2024-02-21 12:04 pm SW 30 40------ 39.0- 32.5---
2024-02-21 11:54 am SW 32 41------ 39.2- 32.2---
2024-02-21 11:44 am SW 31 43------ 39.0- 32.0---
2024-02-21 11:34 am SW 29 38------ 38.3- 32.2---
2024-02-21 11:24 am SW 33 45------ 37.8- 32.2---
2024-02-21 11:16 amWSW 28 38------ 37.9- 32.0---
2024-02-21 11:04 amWSW 27 40------ 38.7- 31.6---
2024-02-21 10:55 amWSW 28 37------ 38.5- 31.5---
2024-02-21 10:44 amWSW 27 38------ 38.5- 31.5---
2024-02-21 10:34 amWSW 23 30------ 37.9- 32.0---
2024-02-21 10:24 amWSW 25 29------ 38.5- 31.5---
2024-02-21 10:14 amWSW 23 30------ 38.7- 31.5---
2024-02-21 10:04 amWSW 20 28------ 37.8- 31.6---
2024-02-21 09:54 amWSW 25 34------ 37.8- 31.6---
2024-02-21 09:44 amWSW 21 29------ 37.9- 31.6---
2024-02-21 09:34 am SW 25 34------ 37.8- 31.5---
2024-02-21 09:24 am SW 23 36------ 37.9- 31.3---
2024-02-21 09:14 amWSW 22 29------ 37.9- 31.3---
2024-02-21 09:04 amWSW 26 34------ 37.9- 31.1---
2024-02-21 08:54 amWSW 22 28------ 37.8- 30.9---
2024-02-21 08:44 amWSW 19 23------ 37.2- 31.1---
2024-02-21 08:34 amWSW 17 22------ 36.7- 30.9---
2024-02-21 08:24 amWSW 18 23------ 36.9- 31.1---
2024-02-21 08:14 am SW 15 19------ 36.7- 31.3---
2024-02-21 08:04 am SW 16 18------ 36.3- 31.3---
2024-02-21 07:54 am SW 17 19------ 35.8- 31.3---
2024-02-21 07:44 am SW 17 20------ 35.6- 31.3---
2024-02-21 07:34 am SW 19 22------ 35.6- 31.1---
2024-02-21 07:14 am SW 21 26------ 36.5- 30.4---
2024-02-21 07:04 am SW 19 22------ 35.8- 30.6---
2024-02-21 06:54 am SW 18 23------ 35.6- 30.4---
2024-02-21 06:44 amWSW 12 19------ 35.8- 28.0---
2024-02-21 06:34 amWSW 11 15------ 35.2- 26.8---
2024-02-21 06:24 amWSW 10 12------ 35.1- 26.6---
2024-02-21 06:14 amWSW 9 11------ 35.2- 26.4---
2024-02-21 06:04 amWSW 9 12------ 35.4- 26.6---
2024-02-21 05:54 am W 6 10------ 35.1- 27.1---
2024-02-21 05:44 amWNW 4 9------ 34.9- 26.2---
2024-02-21 05:34 am W 6 12------ 35.2- 26.4---
2024-02-21 05:24 amWNW 5 9------ 35.2- 26.1---
2024-02-21 05:14 am W 8 12------ 35.6- 26.1---
2024-02-21 05:04 am W 4 8------ 35.4- 25.2---
2024-02-21 04:54 am NW 4 7------ 35.4- 24.3---
2024-02-21 04:44 amNNW 5 9------ 35.6- 24.3---
2024-02-21 04:34 am W 3 8------ 35.1- 24.6---
2024-02-21 04:24 amWNW 5 9------ 34.9- 23.5---
2024-02-21 04:14 am N 3 8------ 33.8- 23.5---
2024-02-21 04:04 am NW 2 4------ 33.4- 25.0---
2024-02-21 03:54 amSSW 1 3------ 33.6- 24.4---
2024-02-21 03:44 am- 0 2------ 33.8- 24.8---
2024-02-21 03:34 am NE 1 3------ 33.8- 24.8---
2024-02-21 03:24 am- 0 2------ 34.2- 23.0---
2024-02-21 03:04 am N 4 5------ 33.6- 24.1---
2024-02-21 02:54 am NW 2 5------ 33.6- 24.3---
2024-02-21 02:44 amNNW 4 6------ 33.3- 25.0---
2024-02-21 02:34 amNNW 4 7------ 33.3- 25.9---
2024-02-21 02:24 am W 4 9------ 33.6- 26.1---
2024-02-21 02:14 am SW 2 4------ 34.3- 25.5---
2024-02-21 02:04 am W 2 3------ 34.5- 24.1---
2024-02-21 01:54 am W 2 4------ 34.5- 23.2---
2024-02-21 01:44 am- 0 2------ 34.2- 23.4---
2024-02-21 01:34 am N 1 2------ 34.3- 23.5---
2024-02-21 01:24 am- 0 1------ 34.3- 24.3---
2024-02-21 01:14 am N 1 2------ 34.5- 23.0---
2024-02-21 01:04 am- 0 3------ 34.0- 23.0---
2024-02-21 12:44 am SE 2 4------ 34.9- 21.6---
2024-02-21 12:34 am SE 4 7------ 33.6- 23.4---
2024-02-21 12:24 amENE 3 4------ 33.6- 23.2---
2024-02-21 12:15 am E 3 5------ 33.6- 24.8---
2024-02-21 12:04 amSSW 1 3------ 34.5- 24.3---
2024-02-20 11:54 pm W 1 2------ 34.7- 23.9---
2024-02-20 11:44 pm NE 2 4------ 34.5- 25.2---
2024-02-20 11:34 pm W 2 3------ 35.1- 23.2---
2024-02-20 11:24 pm NW 2 5------ 34.9- 23.2---
2024-02-20 11:14 pm NW 3 5------ 34.9- 23.2---
2024-02-20 11:04 pm NW 3 5------ 34.5- 23.9---
2024-02-20 10:54 pm N 6 8------ 34.7- 23.7---
2024-02-20 10:44 pm N 5 7------ 34.7- 24.4---
2024-02-20 10:34 pmNNE 2 3------ 35.1- 25.2---
2024-02-20 10:24 pm W 2 3------ 35.2- 23.7---
2024-02-20 10:14 pmSSW 2 5------ 34.7- 24.1---
2024-02-20 10:04 pmNNE 2 4------ 35.1- 24.4---
2024-02-20 09:54 pmNNE 1 3------ 35.6- 22.8---
2024-02-20 09:44 pm NE 2 3------ 35.4- 22.1---
2024-02-20 09:34 pm E 2 3------ 35.6- 23.7---
2024-02-20 09:24 pm SW 2 4------ 36.0- 22.1---
2024-02-20 09:14 pm NW 2 3------ 35.8- 21.6---
2024-02-20 09:04 pmENE 2 4------ 35.6- 23.9---
2024-02-20 08:54 pm SW 1 3------ 36.0- 23.2---
2024-02-20 08:44 pmSSE 1 3------ 36.1- 22.8---
2024-02-20 08:34 pm N 2 3------ 36.0- 23.5---
2024-02-20 08:24 pmWSW 3 6------ 36.0- 22.8---
2024-02-20 08:14 pmWSW 4 6------ 36.0- 22.5---
2024-02-20 08:04 pmWSW 3 6------ 36.1- 23.2---
2024-02-20 07:54 pm W 4 6------ 36.1- 21.7---